createdAt,value
2019-04-29T00:01:37.693Z,11.50
2019-04-29T00:04:04.192Z,11.60
2019-04-29T00:06:30.550Z,11.60
2019-04-29T00:08:57.127Z,11.60
2019-04-29T00:11:23.820Z,11.60
2019-04-29T00:13:50.312Z,11.60
2019-04-29T00:16:37.549Z,11.60
2019-04-29T00:19:17.628Z,11.60
2019-04-29T00:21:44.205Z,11.60
2019-04-29T00:24:10.716Z,11.60
2019-04-29T00:26:37.331Z,11.60
2019-04-29T00:29:03.731Z,11.60
2019-04-29T00:31:30.236Z,11.60
2019-04-29T00:33:56.622Z,11.60
2019-04-29T00:36:25.040Z,11.70
2019-04-29T00:39:09.992Z,11.70
2019-04-29T00:41:56.224Z,11.60
2019-04-29T00:44:22.732Z,11.70
2019-04-29T00:46:49.653Z,11.60
2019-04-29T00:49:15.991Z,11.60
2019-04-29T00:51:42.426Z,11.60
2019-04-29T00:54:12.372Z,11.60
2019-04-29T00:56:38.939Z,11.60
2019-04-29T00:59:05.361Z,11.50
2019-04-29T01:01:32.944Z,11.50
2019-04-29T01:03:59.342Z,11.50
2019-04-29T01:06:25.797Z,11.50
2019-04-29T01:08:52.201Z,11.60
2019-04-29T01:11:18.762Z,11.50
2019-04-29T01:13:45.371Z,11.60
2019-04-29T01:16:11.745Z,11.50
2019-04-29T01:18:38.254Z,11.50
2019-04-29T01:21:04.676Z,11.60
2019-04-29T01:23:31.040Z,11.50
2019-04-29T01:26:02.373Z,11.60
2019-04-29T01:28:32.590Z,11.50
2019-04-29T01:31:07.027Z,11.50
2019-04-29T01:33:33.535Z,11.50
2019-04-29T01:36:17.109Z,11.60
2019-04-29T01:38:43.627Z,11.60
2019-04-29T01:41:27.237Z,11.50
2019-04-29T01:44:10.342Z,11.50
2019-04-29T01:46:36.736Z,11.50
2019-04-29T01:49:03.192Z,11.40
2019-04-29T01:51:29.583Z,11.40
2019-04-29T01:53:56.047Z,11.40
2019-04-29T01:56:22.650Z,11.40
2019-04-29T01:58:48.983Z,11.40
2019-04-29T02:01:15.427Z,11.40
2019-04-29T02:03:42.268Z,11.40
2019-04-29T02:06:08.646Z,11.40
2019-04-29T02:08:36.037Z,11.30
2019-04-29T02:11:02.610Z,11.30
2019-04-29T02:13:29.091Z,11.30
2019-04-29T02:15:55.421Z,11.20
2019-04-29T02:18:21.814Z,11.30
2019-04-29T02:20:48.445Z,11.30
2019-04-29T02:23:16.848Z,11.30
2019-04-29T02:25:45.148Z,11.30
2019-04-29T02:28:11.569Z,11.30
2019-04-29T02:30:40.071Z,11.30
2019-04-29T02:33:06.503Z,11.30
2019-04-29T02:35:32.840Z,11.30
2019-04-29T02:37:59.685Z,11.30
2019-04-29T02:40:33.721Z,11.40
2019-04-29T02:43:02.069Z,11.30
2019-04-29T02:45:30.319Z,11.30
2019-04-29T02:47:56.869Z,11.30
2019-04-29T02:50:23.305Z,11.30
2019-04-29T02:52:49.705Z,11.30
2019-04-29T02:55:18.700Z,11.30
2019-04-29T02:57:50.057Z,11.20
2019-04-29T03:00:27.443Z,11.20
2019-04-29T03:02:58.306Z,11.20
2019-04-29T03:05:32.436Z,11.20
2019-04-29T03:07:58.916Z,11.20
2019-04-29T03:10:25.241Z,11.20
2019-04-29T03:12:51.665Z,11.20
2019-04-29T03:15:27.591Z,11.30
2019-04-29T03:17:53.990Z,11.20
2019-04-29T03:20:32.440Z,11.20
2019-04-29T03:23:07.671Z,11.20
2019-04-29T03:25:34.052Z,11.20
2019-04-29T03:28:00.461Z,11.10
2019-04-29T03:30:27.109Z,11.20
2019-04-29T03:32:53.561Z,11.10
2019-04-29T03:35:20.052Z,11.20
2019-04-29T03:37:46.508Z,11.20
2019-04-29T03:40:13.940Z,11.10
2019-04-29T03:42:40.356Z,11.10
2019-04-29T03:45:06.976Z,11.20
2019-04-29T03:47:33.512Z,11.10
2019-04-29T03:49:59.915Z,11.10
2019-04-29T03:52:26.264Z,11.10
2019-04-29T03:54:52.768Z,11.00
2019-04-29T03:57:19.747Z,11.10
2019-04-29T03:59:46.192Z,11.10
2019-04-29T04:02:17.184Z,11.10
2019-04-29T04:04:45.493Z,11.10
2019-04-29T04:07:28.901Z,11.00
2019-04-29T04:09:55.314Z,11.00
2019-04-29T04:12:21.696Z,11.00
2019-04-29T04:14:48.029Z,11.00
2019-04-29T04:17:20.577Z,10.90
2019-04-29T04:19:48.052Z,10.90
2019-04-29T04:22:14.492Z,10.90
2019-04-29T04:24:40.890Z,10.90
2019-04-29T04:27:07.345Z,10.90
2019-04-29T04:29:33.847Z,11.00
2019-04-29T04:32:00.352Z,10.90
2019-04-29T04:34:26.839Z,10.90
2019-04-29T04:36:53.222Z,10.90
2019-04-29T04:39:19.624Z,10.90
2019-04-29T04:41:46.180Z,10.90
2019-04-29T04:44:12.623Z,10.90
2019-04-29T04:46:39.041Z,10.90
2019-04-29T04:49:05.486Z,10.80
2019-04-29T04:51:31.952Z,10.90
2019-04-29T04:53:58.365Z,10.90
2019-04-29T04:56:24.950Z,10.90
2019-04-29T04:58:51.355Z,10.90
2019-04-29T05:01:17.678Z,10.90
2019-04-29T05:03:44.135Z,11.00
2019-04-29T05:06:10.526Z,11.00
2019-04-29T05:08:36.986Z,10.90
2019-04-29T05:11:03.526Z,11.00
2019-04-29T05:13:29.970Z,11.20
2019-04-29T05:15:56.392Z,11.30
2019-04-29T05:18:22.877Z,11.50
2019-04-29T05:20:49.357Z,11.40
2019-04-29T05:23:16.094Z,11.50
2019-04-29T05:25:42.612Z,11.40
2019-04-29T05:28:08.950Z,11.40
2019-04-29T05:30:35.389Z,11.40
2019-04-29T05:33:01.857Z,11.50
2019-04-29T05:35:35.993Z,11.50
2019-04-29T05:38:04.271Z,11.60
2019-04-29T05:40:44.684Z,11.60
2019-04-29T05:43:13.016Z,11.80
2019-04-29T05:45:56.551Z,11.90
2019-04-29T05:48:22.969Z,12.10
2019-04-29T05:50:53.840Z,12.30
2019-04-29T05:53:25.413Z,12.50
2019-04-29T05:55:52.642Z,12.90
2019-04-29T05:58:19.262Z,13.20
2019-04-29T06:00:56.681Z,13.30
2019-04-29T06:03:23.153Z,13.70
2019-04-29T06:05:49.528Z,14.00
2019-04-29T06:08:16.062Z,14.20
2019-04-29T06:10:42.463Z,14.70
2019-04-29T06:13:08.992Z,14.80
2019-04-29T06:15:35.399Z,14.70
2019-04-29T06:18:01.706Z,14.60
2019-04-29T06:20:28.133Z,14.90
2019-04-29T06:22:54.501Z,15.30
2019-04-29T06:25:20.899Z,15.50
2019-04-29T06:27:48.602Z,15.80
2019-04-29T06:30:15.221Z,16.20
2019-04-29T06:32:41.678Z,16.40
2019-04-29T06:35:10.569Z,16.70
2019-04-29T06:37:36.472Z,16.80
2019-04-29T06:40:06.150Z,17.00
2019-04-29T06:42:33.565Z,17.20
2019-04-29T06:45:00.010Z,17.00
2019-04-29T06:47:27.622Z,17.40
2019-04-29T06:49:53.997Z,17.50
2019-04-29T06:52:20.379Z,17.40
2019-04-29T06:54:46.771Z,17.70
2019-04-29T06:57:13.108Z,18.00
2019-04-29T06:59:42.971Z,18.30
2019-04-29T07:02:09.397Z,18.60
2019-04-29T07:04:39.584Z,18.80
2019-04-29T07:07:04.807Z,18.90
2019-04-29T07:09:31.285Z,19.10
2019-04-29T07:12:01.366Z,19.10
2019-04-29T07:14:28.313Z,19.00
2019-04-29T07:16:54.136Z,19.20
2019-04-29T07:19:22.232Z,19.50
2019-04-29T07:21:51.381Z,19.70
2019-04-29T07:24:20.051Z,20.40
2019-04-29T07:26:45.166Z,20.70
2019-04-29T07:29:11.695Z,20.70
2019-04-29T07:31:38.055Z,20.60
2019-04-29T07:34:04.513Z,20.40
2019-04-29T07:36:30.904Z,20.50
2019-04-29T07:38:57.660Z,20.90
2019-04-29T07:41:24.051Z,21.40
2019-04-29T07:43:50.580Z,21.10
2019-04-29T07:46:55.713Z,21.20
2019-04-29T07:49:05.909Z,21.60
2019-04-29T07:51:34.786Z,21.60
2019-04-29T07:54:00.596Z,21.70
2019-04-29T07:56:26.976Z,22.00
2019-04-29T07:58:53.517Z,21.40
2019-04-29T08:01:24.502Z,22.00
2019-04-29T08:03:48.419Z,22.20
2019-04-29T08:06:15.158Z,21.60
2019-04-29T08:08:53.823Z,21.70
2019-04-29T08:11:10.193Z,22.00
2019-04-29T08:13:37.776Z,22.40
2019-04-29T08:16:04.147Z,22.30
2019-04-29T08:18:30.565Z,22.40
2019-04-29T08:20:56.897Z,22.90
2019-04-29T08:23:23.420Z,22.80
2019-04-29T08:25:51.058Z,22.80
2019-04-29T08:28:18.942Z,23.00
2019-04-29T08:30:45.796Z,23.00
2019-04-29T08:33:13.259Z,22.70
2019-04-29T08:35:39.945Z,23.20
2019-04-29T08:38:06.388Z,23.30
2019-04-29T08:40:34.334Z,23.50
2019-04-29T08:43:06.168Z,24.00
2019-04-29T08:45:43.721Z,23.90
2019-04-29T08:48:10.902Z,23.60
2019-04-29T08:50:37.421Z,23.70
2019-04-29T08:53:03.879Z,24.00
2019-04-29T08:55:31.357Z,24.80
2019-04-29T08:57:58.465Z,24.80
2019-04-29T09:00:25.303Z,25.20
2019-04-29T09:02:51.964Z,25.40
2019-04-29T09:05:18.947Z,25.60
2019-04-29T09:07:45.373Z,25.60
2019-04-29T09:10:13.395Z,25.30
2019-04-29T09:12:39.768Z,25.30
2019-04-29T09:15:07.347Z,25.20
2019-04-29T09:17:33.717Z,25.50
2019-04-29T09:20:00.051Z,25.60
2019-04-29T09:22:28.326Z,25.70
2019-04-29T09:25:11.958Z,25.40
2019-04-29T09:27:40.689Z,25.00
2019-04-29T09:30:09.734Z,25.20
2019-04-29T09:32:38.126Z,26.00
2019-04-29T09:35:04.803Z,26.30
2019-04-29T09:37:32.532Z,27.60
2019-04-29T09:39:59.043Z,26.70
2019-04-29T09:42:45.498Z,26.70
2019-04-29T09:45:14.710Z,26.50
2019-04-29T09:47:42.619Z,26.70
2019-04-29T09:50:09.234Z,26.70
2019-04-29T09:52:35.675Z,26.40
2019-04-29T09:55:03.988Z,26.20
2019-04-29T09:57:31.826Z,26.70
2019-04-29T10:00:09.396Z,26.60
2019-04-29T10:02:42.337Z,27.30
2019-04-29T10:05:13.842Z,27.20
2019-04-29T10:07:40.357Z,26.80
2019-04-29T10:10:07.774Z,27.10
2019-04-29T10:12:34.275Z,26.30
2019-04-29T10:15:00.719Z,26.20
2019-04-29T10:17:28.960Z,26.50
2019-04-29T10:20:07.989Z,27.30
2019-04-29T10:22:34.311Z,27.70
2019-04-29T10:25:02.303Z,27.20
2019-04-29T10:27:28.714Z,27.40
2019-04-29T10:29:57.163Z,27.90
2019-04-29T10:32:23.844Z,28.10
2019-04-29T10:34:50.166Z,27.60
2019-04-29T10:37:16.545Z,26.90
2019-04-29T10:39:47.845Z,27.50
2019-04-29T10:42:16.151Z,27.90
2019-04-29T10:44:52.988Z,27.70
2019-04-29T10:47:26.858Z,27.30
2019-04-29T10:49:57.916Z,27.00
2019-04-29T10:52:24.619Z,27.40
2019-04-29T10:54:55.167Z,27.70
2019-04-29T10:57:22.553Z,27.60
2019-04-29T10:59:50.928Z,27.70
2019-04-29T11:02:20.368Z,27.90
2019-04-29T11:04:51.680Z,28.40
2019-04-29T11:07:26.546Z,28.20
2019-04-29T11:09:52.564Z,28.20
2019-04-29T11:12:19.148Z,28.00
2019-04-29T11:14:45.726Z,27.90
2019-04-29T11:17:16.481Z,28.10
2019-04-29T11:19:41.715Z,28.20
2019-04-29T11:22:08.552Z,28.30
2019-04-29T11:24:42.663Z,28.50
2019-04-29T11:27:12.343Z,29.10
2019-04-29T11:29:39.151Z,28.60
2019-04-29T11:32:07.860Z,28.40
2019-04-29T11:34:36.155Z,28.70
2019-04-29T11:37:02.859Z,28.20
2019-04-29T11:39:30.362Z,28.50
2019-04-29T11:41:59.791Z,28.40
2019-04-29T11:44:26.601Z,27.90
2019-04-29T11:46:53.463Z,28.10
2019-04-29T11:49:21.810Z,28.20
2019-04-29T11:52:08.397Z,28.20
2019-04-29T11:54:18.214Z,27.70
2019-04-29T11:56:45.023Z,27.90
2019-04-29T11:59:25.268Z,27.50
2019-04-29T12:01:59.756Z,27.70
2019-04-29T12:04:28.615Z,27.80
2019-04-29T12:06:58.117Z,27.90
2019-04-29T12:09:25.395Z,28.10
2019-04-29T12:11:53.483Z,28.10
2019-04-29T12:14:24.619Z,28.70
2019-04-29T12:16:55.996Z,28.50
2019-04-29T12:19:27.381Z,28.00
2019-04-29T12:21:55.341Z,27.70
2019-04-29T12:24:21.696Z,27.60
2019-04-29T12:26:48.158Z,28.30
2019-04-29T12:29:18.283Z,28.20
2019-04-29T12:31:56.634Z,28.40
2019-04-29T12:34:41.525Z,28.20
2019-04-29T12:37:25.664Z,28.30
2019-04-29T12:39:59.643Z,28.50
2019-04-29T12:42:30.111Z,28.80
2019-04-29T12:45:00.950Z,28.70
2019-04-29T12:47:32.207Z,28.40
2019-04-29T12:49:58.766Z,28.00
2019-04-29T12:52:25.409Z,28.10
2019-04-29T12:54:51.781Z,27.70
2019-04-29T12:57:18.916Z,27.90
2019-04-29T12:59:46.373Z,28.00
2019-04-29T13:02:19.889Z,27.70
2019-04-29T13:04:49.819Z,27.70
2019-04-29T13:07:26.677Z,27.60
2019-04-29T13:10:09.872Z,27.50
2019-04-29T13:12:39.807Z,27.90
2019-04-29T13:15:08.042Z,27.80
2019-04-29T13:17:46.426Z,27.30
2019-04-29T13:20:13.176Z,27.50
2019-04-29T13:22:39.762Z,27.20
2019-04-29T13:25:06.780Z,27.10
2019-04-29T13:27:33.321Z,27.50
2019-04-29T13:29:59.679Z,27.40
2019-04-29T13:32:29.767Z,28.00
2019-04-29T13:34:56.234Z,27.50
2019-04-29T13:37:23.899Z,26.70
2019-04-29T13:39:55.278Z,26.60
2019-04-29T13:42:18.635Z,26.50
2019-04-29T13:45:05.183Z,26.30
2019-04-29T13:47:17.186Z,26.40
2019-04-29T13:49:49.060Z,26.30
2019-04-29T13:52:14.904Z,26.10
2019-04-29T13:54:42.861Z,26.00
2019-04-29T13:57:15.606Z,25.80
2019-04-29T13:59:50.363Z,26.10
2019-04-29T14:02:31.099Z,25.80
2019-04-29T14:05:02.203Z,25.70
2019-04-29T14:07:29.905Z,26.50
2019-04-29T14:09:56.401Z,27.10
2019-04-29T14:12:47.716Z,26.50
2019-04-29T14:14:53.924Z,25.90
2019-04-29T14:17:26.641Z,25.80
2019-04-29T14:19:47.485Z,25.90
2019-04-29T14:22:21.904Z,25.90
2019-04-29T14:24:42.210Z,26.10
2019-04-29T14:27:08.525Z,26.10
2019-04-29T14:29:36.029Z,26.00
2019-04-29T14:32:02.453Z,25.90
2019-04-29T14:34:36.996Z,25.50
2019-04-29T14:37:19.660Z,25.10
2019-04-29T14:39:37.312Z,25.30
2019-04-29T14:42:02.449Z,25.10
2019-04-29T14:44:31.453Z,25.00
2019-04-29T14:47:02.577Z,24.70
2019-04-29T14:49:30.810Z,24.70
2019-04-29T14:51:57.229Z,24.50
2019-04-29T14:54:23.656Z,24.30
2019-04-29T14:56:50.124Z,23.70
2019-04-29T14:59:16.520Z,23.20
2019-04-29T15:01:44.891Z,22.60
2019-04-29T15:04:18.622Z,21.90
2019-04-29T15:06:41.245Z,21.50
2019-04-29T15:09:16.577Z,21.30
2019-04-29T15:11:54.021Z,21.20
2019-04-29T15:14:26.054Z,21.00
2019-04-29T15:17:01.627Z,20.90
2019-04-29T15:19:39.066Z,20.90
2019-04-29T15:22:06.827Z,21.00
2019-04-29T15:24:34.140Z,20.80
2019-04-29T15:27:00.660Z,20.80
2019-04-29T15:29:27.010Z,20.60
2019-04-29T15:31:54.440Z,20.40
2019-04-29T15:34:20.879Z,20.40
2019-04-29T15:36:47.196Z,20.20
2019-04-29T15:39:13.796Z,20.00
2019-04-29T15:41:40.385Z,19.90
2019-04-29T15:44:08.446Z,19.80
2019-04-29T15:46:46.233Z,19.70
2019-04-29T15:49:03.347Z,19.70
2019-04-29T15:51:29.685Z,19.60
2019-04-29T15:53:56.116Z,19.50
2019-04-29T15:56:28.737Z,19.50
2019-04-29T15:58:50.844Z,19.50
2019-04-29T16:01:22.153Z,19.40
2019-04-29T16:03:45.573Z,19.10
2019-04-29T16:06:21.484Z,19.00
2019-04-29T16:08:52.766Z,18.90
2019-04-29T16:11:33.385Z,18.80
2019-04-29T16:14:09.072Z,18.70
2019-04-29T16:16:26.408Z,18.90
2019-04-29T16:18:52.928Z,18.80
2019-04-29T16:21:20.248Z,18.90
2019-04-29T16:23:46.682Z,18.80
2019-04-29T16:26:13.154Z,18.90
2019-04-29T16:28:40.186Z,19.00
2019-04-29T16:31:12.442Z,18.90
2019-04-29T16:33:35.217Z,18.80
2019-04-29T16:36:04.874Z,18.90
2019-04-29T16:38:30.252Z,18.70
2019-04-29T16:41:01.435Z,18.60
2019-04-29T16:43:29.935Z,18.60
2019-04-29T16:45:58.813Z,18.50
2019-04-29T16:48:25.503Z,18.50
2019-04-29T16:50:51.919Z,18.30
2019-04-29T16:53:19.526Z,18.20
2019-04-29T16:55:47.010Z,18.20
2019-04-29T16:58:18.229Z,18.10
2019-04-29T17:00:46.847Z,18.10
2019-04-29T17:03:11.848Z,17.90
2019-04-29T17:05:38.234Z,17.80
2019-04-29T17:08:09.389Z,17.60
2019-04-29T17:10:39.920Z,17.50
2019-04-29T17:13:09.153Z,17.40
2019-04-29T17:15:34.819Z,17.40
2019-04-29T17:18:02.000Z,17.40
2019-04-29T17:20:28.583Z,17.30
2019-04-29T17:22:55.249Z,17.10
2019-04-29T17:25:22.502Z,17.20
2019-04-29T17:27:50.864Z,17.00
2019-04-29T17:30:23.507Z,16.90
2019-04-29T17:33:26.823Z,16.80
2019-04-29T17:35:49.355Z,16.80
2019-04-29T17:38:15.785Z,16.70
2019-04-29T17:40:50.916Z,16.60
2019-04-29T17:43:29.550Z,16.50
2019-04-29T17:45:57.999Z,16.40
2019-04-29T17:48:26.407Z,16.50
2019-04-29T17:50:58.185Z,16.30
2019-04-29T17:53:26.778Z,16.30
2019-04-29T17:56:01.064Z,16.20
2019-04-29T17:58:38.524Z,16.10
2019-04-29T18:01:24.305Z,16.00
2019-04-29T18:03:56.404Z,15.90
2019-04-29T18:06:28.098Z,15.80
2019-04-29T18:08:57.714Z,15.80
2019-04-29T18:11:25.069Z,15.60
2019-04-29T18:13:52.537Z,15.40
2019-04-29T18:16:25.896Z,15.30
2019-04-29T18:18:57.623Z,15.30
2019-04-29T18:21:43.278Z,15.30
2019-04-29T18:24:34.155Z,15.20
2019-04-29T18:27:05.454Z,15.00
2019-04-29T18:29:35.821Z,15.00
2019-04-29T18:32:04.395Z,15.00
2019-04-29T18:34:29.314Z,14.90
2019-04-29T18:37:00.480Z,14.70
2019-04-29T18:39:31.483Z,14.80
2019-04-29T18:41:58.764Z,14.60
2019-04-29T18:44:25.899Z,14.60
2019-04-29T18:46:53.871Z,14.60
2019-04-29T18:49:20.472Z,14.50
2019-04-29T18:51:46.997Z,14.40
2019-04-29T18:54:13.538Z,14.40
2019-04-29T18:56:40.003Z,14.30
2019-04-29T18:59:06.561Z,14.30
2019-04-29T19:01:34.905Z,14.20
2019-04-29T19:04:04.766Z,14.20
2019-04-29T19:06:31.805Z,14.10
2019-04-29T19:09:01.733Z,14.00
2019-04-29T19:11:32.483Z,13.90
2019-04-29T19:13:54.916Z,13.70
2019-04-29T19:16:22.055Z,13.70
2019-04-29T19:18:52.013Z,13.70
2019-04-29T19:21:17.945Z,13.60
2019-04-29T19:23:45.853Z,13.60
2019-04-29T19:26:12.997Z,13.50
2019-04-29T19:28:39.630Z,13.50
2019-04-29T19:31:09.376Z,13.40
2019-04-29T19:33:37.930Z,13.30
2019-04-29T19:36:06.013Z,13.40
2019-04-29T19:38:31.386Z,13.40
2019-04-29T19:40:57.850Z,13.40
2019-04-29T19:43:25.889Z,13.20
2019-04-29T19:45:52.437Z,13.20
2019-04-29T19:48:22.407Z,13.10
2019-04-29T19:50:51.651Z,13.00
2019-04-29T19:53:16.753Z,12.90
2019-04-29T19:55:45.587Z,12.90
2019-04-29T19:58:12.929Z,12.90
2019-04-29T20:00:40.212Z,12.80
2019-04-29T20:03:20.651Z,12.70
2019-04-29T20:05:40.205Z,12.70
2019-04-29T20:08:07.723Z,12.60
2019-04-29T20:10:44.298Z,12.60
2019-04-29T20:13:03.324Z,12.60
2019-04-29T20:15:33.957Z,12.50
2019-04-29T20:18:05.439Z,12.50
2019-04-29T20:21:28.810Z,12.50
2019-04-29T20:23:02.628Z,12.50
2019-04-29T20:25:33.598Z,12.40
2019-04-29T20:28:05.516Z,12.20
2019-04-29T20:30:26.673Z,12.10
2019-04-29T20:32:55.997Z,12.10
2019-04-29T20:35:22.579Z,12.10
2019-04-29T20:37:55.701Z,12.00
2019-04-29T20:40:17.509Z,12.00
2019-04-29T20:42:50.857Z,11.90
2019-04-29T20:45:20.115Z,11.80
2019-04-29T20:47:45.858Z,11.80
2019-04-29T20:50:13.996Z,11.70
2019-04-29T20:52:45.797Z,11.70
2019-04-29T20:55:12.862Z,11.70
2019-04-29T20:57:41.149Z,11.70
2019-04-29T21:00:08.703Z,11.60
2019-04-29T21:02:37.412Z,11.50
2019-04-29T21:05:23.206Z,11.50
2019-04-29T21:07:45.577Z,11.40
2019-04-29T21:10:12.654Z,11.40
2019-04-29T21:12:41.412Z,11.40
2019-04-29T21:15:16.329Z,11.40
2019-04-29T21:17:43.048Z,11.40
2019-04-29T21:20:09.521Z,11.30
2019-04-29T21:22:35.913Z,11.30
2019-04-29T21:25:04.483Z,11.20
2019-04-29T21:27:30.849Z,11.20
2019-04-29T21:29:57.234Z,11.20
2019-04-29T21:32:25.619Z,11.20
2019-04-29T21:34:55.602Z,11.00
2019-04-29T21:37:29.778Z,11.10
2019-04-29T21:40:00.883Z,10.90
2019-04-29T21:42:35.690Z,10.90
2019-04-29T21:45:03.592Z,10.90
2019-04-29T21:47:41.769Z,10.90
2019-04-29T21:49:57.828Z,10.80
2019-04-29T21:52:25.377Z,10.80
2019-04-29T21:54:51.985Z,10.70
2019-04-29T21:57:23.710Z,10.70
2019-04-29T21:59:48.624Z,10.70
2019-04-29T22:02:15.331Z,10.70
2019-04-29T22:04:45.024Z,10.70
2019-04-29T22:07:12.251Z,10.60
2019-04-29T22:09:40.566Z,10.50
2019-04-29T22:12:07.720Z,10.50
2019-04-29T22:14:34.891Z,10.50
2019-04-29T22:17:01.444Z,10.50
2019-04-29T22:19:28.215Z,10.40
2019-04-29T22:21:57.846Z,10.40
2019-04-29T22:24:28.558Z,10.30
2019-04-29T22:26:58.163Z,10.30
2019-04-29T22:29:24.682Z,10.30
2019-04-29T22:31:51.651Z,10.10
2019-04-29T22:34:19.306Z,10.10
2019-04-29T22:36:48.192Z,10.10
2019-04-29T22:39:15.805Z,10.00
2019-04-29T22:41:54.178Z,10.10
2019-04-29T22:44:21.876Z,10.00
2019-04-29T22:46:49.128Z,9.90
2019-04-29T22:49:19.826Z,9.90
2019-04-29T22:51:45.423Z,9.80
2019-04-29T22:54:11.967Z,9.80
2019-04-29T22:56:40.550Z,9.70
2019-04-29T22:59:06.535Z,9.70
2019-04-29T23:01:32.888Z,9.70
2019-04-29T23:03:59.295Z,9.80
2019-04-29T23:06:25.941Z,9.70
2019-04-29T23:08:52.572Z,9.70
2019-04-29T23:11:18.902Z,9.50
2019-04-29T23:13:46.169Z,9.60
2019-04-29T23:16:13.464Z,9.60
2019-04-29T23:18:44.064Z,9.50
2019-04-29T23:21:28.091Z,9.50
2019-04-29T23:24:17.320Z,9.50
2019-04-29T23:26:42.791Z,9.50
2019-04-29T23:29:09.345Z,9.40
2019-04-29T23:31:36.993Z,9.30
2019-04-29T23:34:05.626Z,9.40
2019-04-29T23:36:31.730Z,9.30
2019-04-29T23:38:58.068Z,9.30
2019-04-29T23:41:27.690Z,9.30
2019-04-29T23:43:52.603Z,9.30
2019-04-29T23:46:19.033Z,9.40
2019-04-29T23:48:46.759Z,9.30
2019-04-29T23:51:15.370Z,9.30
2019-04-29T23:53:41.934Z,9.20
2019-04-29T23:56:09.759Z,9.20
2019-04-29T23:58:41.099Z,9.10
